createdAt,value
2018-07-05T00:00:08.694Z,46.89
2018-07-05T00:02:55.597Z,47.36
2018-07-05T00:05:42.390Z,48.04
2018-07-05T00:08:29.238Z,48.16
2018-07-05T00:11:15.911Z,47.68
2018-07-05T00:14:02.507Z,47.85
2018-07-05T00:16:49.193Z,48.15
2018-07-05T00:19:36.012Z,48.30
2018-07-05T00:22:22.925Z,48.93
2018-07-05T00:25:24.452Z,49.09
2018-07-05T00:28:11.299Z,49.66
2018-07-05T00:30:58.179Z,49.48
2018-07-05T00:33:44.879Z,49.69
2018-07-05T00:36:31.707Z,49.44
2018-07-05T00:39:18.540Z,50.28
2018-07-05T00:42:05.388Z,49.80
2018-07-05T00:44:52.528Z,49.46
2018-07-05T00:47:39.211Z,49.98
2018-07-05T00:50:27.593Z,49.96
2018-07-05T00:53:14.411Z,50.51
2018-07-05T00:56:01.409Z,50.33
2018-07-05T00:58:48.144Z,50.89
2018-07-05T01:01:35.098Z,50.51
2018-07-05T01:04:21.790Z,50.91
2018-07-05T01:07:09.260Z,51.15
2018-07-05T01:09:55.809Z,50.55
2018-07-05T01:12:42.434Z,50.76
2018-07-05T01:15:29.446Z,50.91
2018-07-05T01:18:16.341Z,50.76
2018-07-05T01:21:03.733Z,50.75
2018-07-05T01:23:50.612Z,51.53
2018-07-05T01:26:37.595Z,51.00
2018-07-05T01:29:24.338Z,50.99
2018-07-05T01:32:11.393Z,51.04
2018-07-05T01:34:58.382Z,51.19
2018-07-05T01:37:45.150Z,51.38
2018-07-05T01:40:32.066Z,50.91
2018-07-05T01:43:19.113Z,50.88
2018-07-05T01:46:05.989Z,51.30
2018-07-05T01:48:52.936Z,51.46
2018-07-05T01:51:39.704Z,50.95
2018-07-05T01:54:26.327Z,51.78
2018-07-05T01:57:13.702Z,51.54
2018-07-05T02:00:00.556Z,51.52
2018-07-05T02:02:47.365Z,51.93
2018-07-05T02:05:37.630Z,51.67
2018-07-05T02:08:24.477Z,51.86
2018-07-05T02:11:11.284Z,51.59
2018-07-05T02:14:01.000Z,51.17
2018-07-05T02:16:47.983Z,51.06
2018-07-05T02:19:34.574Z,51.50
2018-07-05T02:22:21.477Z,51.35
2018-07-05T02:25:08.378Z,51.40
2018-07-05T02:27:55.069Z,52.00
2018-07-05T02:30:42.000Z,51.40
2018-07-05T02:33:29.225Z,51.80
2018-07-05T02:36:16.019Z,52.05
2018-07-05T02:39:07.974Z,52.08
2018-07-05T02:41:54.670Z,51.36
2018-07-05T02:44:41.630Z,51.44
2018-07-05T02:47:28.558Z,51.31
2018-07-05T02:50:15.333Z,51.24
2018-07-05T02:53:01.977Z,51.51
2018-07-05T02:55:48.757Z,51.78
2018-07-05T02:58:35.660Z,51.88
2018-07-05T03:01:22.332Z,52.06
2018-07-05T03:04:09.038Z,52.00
2018-07-05T03:06:55.694Z,51.41
2018-07-05T03:09:42.376Z,51.83
2018-07-05T03:12:29.422Z,51.53
2018-07-05T03:15:16.217Z,51.72
2018-07-05T03:18:03.063Z,51.34
2018-07-05T03:20:50.009Z,51.62
2018-07-05T03:23:36.991Z,51.62
2018-07-05T03:26:23.922Z,51.52
2018-07-05T03:29:13.721Z,50.71
2018-07-05T03:32:00.457Z,51.14
2018-07-05T03:34:47.219Z,50.90
2018-07-05T03:37:37.064Z,50.81
2018-07-05T03:40:23.837Z,50.94
2018-07-05T03:43:10.546Z,50.62
2018-07-05T03:45:57.366Z,50.44
2018-07-05T03:48:44.490Z,50.68
2018-07-05T03:51:31.507Z,50.59
2018-07-05T03:54:18.415Z,50.23
2018-07-05T03:57:07.671Z,50.84
2018-07-05T03:59:54.346Z,50.56
2018-07-05T04:02:41.041Z,50.11
2018-07-05T04:05:27.807Z,50.26
2018-07-05T04:08:15.158Z,50.58
2018-07-05T04:11:03.075Z,49.52
2018-07-05T04:13:50.157Z,50.33
2018-07-05T04:16:36.954Z,49.80
2018-07-05T04:19:23.790Z,49.78
2018-07-05T04:22:11.146Z,49.89
2018-07-05T04:24:58.050Z,50.14
2018-07-05T04:27:45.023Z,49.00
2018-07-05T04:30:31.643Z,49.17
2018-07-05T04:33:18.329Z,49.54
2018-07-05T04:36:05.677Z,48.29
2018-07-05T04:38:52.708Z,48.21
2018-07-05T04:41:39.360Z,49.20
2018-07-05T04:44:26.110Z,48.69
2018-07-05T04:47:12.847Z,48.63
2018-07-05T04:49:59.784Z,48.22
2018-07-05T04:52:46.812Z,48.08
2018-07-05T04:55:33.713Z,47.54
2018-07-05T04:58:20.818Z,47.29
2018-07-05T05:01:07.912Z,47.56
2018-07-05T05:03:54.743Z,47.66
2018-07-05T05:06:41.385Z,46.62
2018-07-05T05:09:28.055Z,47.09
2018-07-05T05:12:14.786Z,46.33
2018-07-05T05:15:01.534Z,46.15
2018-07-05T05:17:48.672Z,45.86
2018-07-05T05:20:35.546Z,45.59
2018-07-05T05:23:22.155Z,45.51
2018-07-05T05:26:09.118Z,46.13
2018-07-05T05:28:55.980Z,45.96
2018-07-05T05:31:42.602Z,45.98
2018-07-05T05:34:29.351Z,44.83
2018-07-05T05:37:16.047Z,44.69
2018-07-05T05:40:02.720Z,44.72
2018-07-05T05:42:49.573Z,44.47
2018-07-05T05:45:36.431Z,44.13
2018-07-05T05:48:23.498Z,44.42
2018-07-05T05:51:11.134Z,44.36
2018-07-05T05:53:58.020Z,44.50
2018-07-05T05:56:45.019Z,44.26
2018-07-05T05:59:31.717Z,43.33
2018-07-05T06:02:18.389Z,43.48
2018-07-05T06:05:05.231Z,43.95
2018-07-05T06:07:52.307Z,43.98
2018-07-05T06:10:39.143Z,43.73
2018-07-05T06:13:25.908Z,42.96
2018-07-05T06:16:12.851Z,43.21
2018-07-05T06:18:59.482Z,42.43
2018-07-05T06:21:46.543Z,43.00
2018-07-05T06:24:33.163Z,42.22
2018-07-05T06:27:20.168Z,42.29
2018-07-05T06:30:07.263Z,42.28
2018-07-05T06:32:54.129Z,42.13
2018-07-05T06:35:41.107Z,41.56
2018-07-05T06:38:28.059Z,40.98
2018-07-05T06:41:15.362Z,40.56
2018-07-05T06:44:02.288Z,41.09
2018-07-05T06:46:49.479Z,40.15
2018-07-05T06:53:26.300Z,39.59
2018-07-05T06:56:13.218Z,39.42
2018-07-05T06:59:00.136Z,39.28
2018-07-05T07:01:47.162Z,39.22
2018-07-05T07:04:34.276Z,39.06
2018-07-05T07:07:21.174Z,39.48
2018-07-05T07:10:08.520Z,38.97
2018-07-05T07:12:55.404Z,39.26
2018-07-05T07:15:42.441Z,41.89
2018-07-05T07:18:29.100Z,43.90
2018-07-05T07:21:20.364Z,43.83
2018-07-05T07:24:07.165Z,43.51
2018-07-05T07:26:53.982Z,44.46
2018-07-05T07:29:40.769Z,44.46
2018-07-05T07:32:27.494Z,44.39
2018-07-05T07:35:14.849Z,44.76
2018-07-05T07:38:01.951Z,44.02
2018-07-05T07:40:48.763Z,43.55
2018-07-05T07:43:23.213Z,43.68
2018-07-05T07:45:51.403Z,44.12
2018-07-05T07:48:19.637Z,44.26
2018-07-05T07:50:47.908Z,43.32
2018-07-05T07:53:16.073Z,43.13
2018-07-05T07:55:44.664Z,42.30
2018-07-05T07:58:13.069Z,42.69
2018-07-05T08:00:41.563Z,42.83
2018-07-05T08:03:10.259Z,42.90
2018-07-05T08:05:39.091Z,42.39
2018-07-05T08:08:07.346Z,41.77
2018-07-05T08:10:35.763Z,42.24
2018-07-05T08:13:03.923Z,42.29
2018-07-05T08:15:32.204Z,42.31
2018-07-05T08:18:00.678Z,41.85
2018-07-05T08:20:29.078Z,40.66
2018-07-05T08:22:57.392Z,39.38
2018-07-05T08:25:25.548Z,37.50
2018-07-05T08:27:53.783Z,37.35
2018-07-05T08:30:22.279Z,37.37
2018-07-05T08:32:50.523Z,37.70
2018-07-05T08:35:18.717Z,36.62
2018-07-05T08:37:47.740Z,37.05
2018-07-05T08:40:16.303Z,36.52
2018-07-05T08:42:44.553Z,36.59
2018-07-05T08:45:12.795Z,37.35
2018-07-05T08:47:41.031Z,36.71
2018-07-05T08:50:09.461Z,36.56
2018-07-05T08:52:37.801Z,37.44
2018-07-05T08:55:05.898Z,36.18
2018-07-05T08:57:33.938Z,35.95
2018-07-05T09:00:02.248Z,36.54
2018-07-05T09:02:30.345Z,35.93
2018-07-05T09:04:58.662Z,36.91
2018-07-05T09:07:26.929Z,36.76
2018-07-05T09:09:55.074Z,36.13
2018-07-05T09:12:23.185Z,35.86
2018-07-05T09:14:51.428Z,35.68
2018-07-05T09:17:19.628Z,35.58
2018-07-05T09:19:48.012Z,35.50
2018-07-05T09:22:16.273Z,36.00
2018-07-05T09:24:44.465Z,35.40
2018-07-05T09:27:12.588Z,35.01
2018-07-05T09:29:40.904Z,35.16
2018-07-05T09:32:09.974Z,35.57
2018-07-05T09:34:42.546Z,34.73
2018-07-05T09:37:10.695Z,34.70
2018-07-05T09:39:38.992Z,34.87
2018-07-05T09:42:07.115Z,34.78
2018-07-05T09:44:35.274Z,35.15
2018-07-05T09:47:03.630Z,34.18
2018-07-05T09:49:32.139Z,34.72
2018-07-05T09:52:00.330Z,34.43
2018-07-05T09:54:28.500Z,33.73
2018-07-05T09:56:56.735Z,34.26
2018-07-05T09:59:24.866Z,34.16
2018-07-05T10:01:52.996Z,33.52
2018-07-05T10:04:21.235Z,33.54
2018-07-05T10:06:49.427Z,33.04
2018-07-05T10:09:17.549Z,32.39
2018-07-05T10:11:45.807Z,32.27
2018-07-05T10:14:13.951Z,31.92
2018-07-05T10:16:42.161Z,32.33
2018-07-05T10:19:10.278Z,31.68
2018-07-05T10:21:38.377Z,31.72
2018-07-05T10:24:06.550Z,31.46
2018-07-05T10:26:34.717Z,31.27
2018-07-05T10:29:17.145Z,32.13
2018-07-05T10:32:05.157Z,31.75
2018-07-05T10:34:39.424Z,31.34
2018-07-05T10:37:07.551Z,31.49
2018-07-05T10:39:35.804Z,30.60
2018-07-05T10:42:16.645Z,31.32
2018-07-05T10:45:03.532Z,31.46
2018-07-05T10:47:50.411Z,30.74
2018-07-05T10:50:37.360Z,30.82
2018-07-05T10:53:24.285Z,30.68
2018-07-05T10:56:11.018Z,31.40
2018-07-05T10:58:57.954Z,31.41
2018-07-05T11:01:44.738Z,30.49
2018-07-05T11:04:31.650Z,30.66
2018-07-05T11:07:18.505Z,30.47
2018-07-05T11:10:05.421Z,30.99
2018-07-05T11:12:52.578Z,30.24
2018-07-05T11:15:39.258Z,30.14
2018-07-05T11:18:26.799Z,30.96
2018-07-05T11:21:13.781Z,30.94
2018-07-05T11:24:00.862Z,30.21
2018-07-05T11:26:48.560Z,29.80
2018-07-05T11:29:35.441Z,29.73
2018-07-05T11:32:22.389Z,28.85
2018-07-05T11:35:09.113Z,28.75
2018-07-05T11:37:56.085Z,29.02
2018-07-05T11:40:43.555Z,28.73
2018-07-05T11:43:30.356Z,28.58
2018-07-05T11:46:17.677Z,28.60
2018-07-05T11:49:04.600Z,28.19
2018-07-05T11:51:51.777Z,28.34
2018-07-05T11:54:38.607Z,28.89
2018-07-05T11:57:25.769Z,28.82
2018-07-05T12:00:12.576Z,28.06
2018-07-05T12:02:59.368Z,29.00
2018-07-05T12:05:46.489Z,29.30
2018-07-05T12:08:33.301Z,29.60
2018-07-05T12:11:20.263Z,29.33
2018-07-05T12:14:06.951Z,28.90
2018-07-05T12:16:54.081Z,29.72
2018-07-05T12:19:41.035Z,29.59
2018-07-05T12:22:27.956Z,29.46
2018-07-05T12:25:15.346Z,28.16
2018-07-05T12:28:02.212Z,28.37
2018-07-05T12:30:49.013Z,28.12
2018-07-05T12:33:36.023Z,27.80
2018-07-05T12:36:22.893Z,27.28
2018-07-05T12:39:10.113Z,27.42
2018-07-05T12:41:57.005Z,27.89
2018-07-05T12:44:43.750Z,27.21
2018-07-05T12:47:30.659Z,27.01
2018-07-05T12:50:17.448Z,27.96
2018-07-05T12:53:04.246Z,27.87
2018-07-05T12:55:50.886Z,27.60
2018-07-05T12:58:37.751Z,26.81
2018-07-05T13:01:24.662Z,26.79
2018-07-05T13:04:11.594Z,26.60
2018-07-05T13:06:58.636Z,26.52
2018-07-05T13:09:45.269Z,26.59
2018-07-05T13:12:32.045Z,26.32
2018-07-05T13:15:18.723Z,27.22
2018-07-05T13:18:05.486Z,27.30
2018-07-05T13:20:52.391Z,27.27
2018-07-05T13:23:39.289Z,26.34
2018-07-05T13:26:26.146Z,26.02
2018-07-05T13:29:13.359Z,26.99
2018-07-05T13:32:00.545Z,27.19
2018-07-05T13:34:47.421Z,26.84
2018-07-05T13:37:34.191Z,27.15
2018-07-05T13:40:21.172Z,26.50
2018-07-05T13:43:07.841Z,26.80
2018-07-05T13:45:54.787Z,27.32
2018-07-05T13:48:41.451Z,27.40
2018-07-05T13:51:28.673Z,27.15
2018-07-05T13:54:15.527Z,27.75
2018-07-05T13:57:02.220Z,28.18
2018-07-05T13:59:48.969Z,27.64
2018-07-05T14:02:36.055Z,27.65
2018-07-05T14:05:22.663Z,28.31
2018-07-05T14:08:09.252Z,28.34
2018-07-05T14:10:56.080Z,28.00
2018-07-05T14:13:42.959Z,28.41
2018-07-05T14:16:29.759Z,28.39
2018-07-05T14:19:16.825Z,28.28
2018-07-05T14:22:04.625Z,28.77
2018-07-05T14:24:51.616Z,29.12
2018-07-05T14:27:38.559Z,28.60
2018-07-05T14:30:25.379Z,29.12
2018-07-05T14:33:12.114Z,30.23
2018-07-05T14:35:58.859Z,30.06
2018-07-05T14:38:45.766Z,31.25
2018-07-05T14:41:32.956Z,31.58
2018-07-05T14:44:19.700Z,31.79
2018-07-05T14:47:06.747Z,32.10
2018-07-05T14:49:53.416Z,32.34
2018-07-05T14:52:40.163Z,32.51
2018-07-05T14:55:26.999Z,33.43
2018-07-05T14:58:13.792Z,33.40
2018-07-05T15:01:00.523Z,33.47
2018-07-05T15:03:47.330Z,33.80
2018-07-05T15:06:34.045Z,33.42
2018-07-05T15:09:20.742Z,32.97
2018-07-05T15:12:07.307Z,32.91
2018-07-05T15:14:54.210Z,31.88
2018-07-05T15:17:41.092Z,32.59
2018-07-05T15:20:27.850Z,32.30
2018-07-05T15:23:14.802Z,31.16
2018-07-05T15:26:01.626Z,31.03
2018-07-05T15:28:48.431Z,31.00
2018-07-05T15:31:35.355Z,31.53
2018-07-05T15:34:22.241Z,31.68
2018-07-05T15:37:09.062Z,31.33
2018-07-05T15:39:56.127Z,30.93
2018-07-05T15:42:42.950Z,31.89
2018-07-05T15:45:29.817Z,31.55
2018-07-05T15:48:16.470Z,31.98
2018-07-05T15:51:03.529Z,31.25
2018-07-05T15:53:50.246Z,31.95
2018-07-05T15:56:37.355Z,31.87
2018-07-05T15:59:24.277Z,32.00
2018-07-05T16:02:10.950Z,32.28
2018-07-05T16:04:57.728Z,31.24
2018-07-05T16:07:44.372Z,31.46
2018-07-05T16:10:31.181Z,31.86
2018-07-05T16:13:17.955Z,31.71
2018-07-05T16:16:04.787Z,31.42
2018-07-05T16:18:51.608Z,32.16
2018-07-05T16:21:38.733Z,32.02
2018-07-05T16:24:25.625Z,31.92
2018-07-05T16:27:12.503Z,32.10
2018-07-05T16:29:59.370Z,32.01
2018-07-05T16:32:46.177Z,32.39
2018-07-05T16:35:33.116Z,32.57
2018-07-05T16:38:19.883Z,31.97
2018-07-05T16:41:06.868Z,32.67
2018-07-05T16:43:53.561Z,32.57
2018-07-05T16:46:40.368Z,32.54
2018-07-05T16:49:27.233Z,33.15
2018-07-05T16:52:14.141Z,33.10
2018-07-05T16:55:01.146Z,33.34
2018-07-05T17:19:13.043Z,36.11
2018-07-05T17:22:00.052Z,35.65
2018-07-05T17:24:47.048Z,36.73
2018-07-05T17:27:33.668Z,36.94
2018-07-05T17:30:20.594Z,37.76
2018-07-05T17:33:07.559Z,37.24
2018-07-05T17:35:54.446Z,38.43
2018-07-05T17:38:41.053Z,37.91
2018-07-05T17:41:27.923Z,38.89
2018-07-05T17:44:14.964Z,38.17
2018-07-05T17:47:02.013Z,38.81
2018-07-05T17:49:48.955Z,39.81
2018-07-05T17:52:35.731Z,39.48
2018-07-05T17:55:22.590Z,39.09
2018-07-05T17:58:09.457Z,39.85
2018-07-05T18:00:56.884Z,40.09
2018-07-05T18:03:43.906Z,40.72
2018-07-05T18:06:30.397Z,41.96
2018-07-05T18:09:17.096Z,42.20
2018-07-05T18:12:04.112Z,43.88
2018-07-05T18:14:51.209Z,43.67
2018-07-05T18:17:37.891Z,44.18
2018-07-05T18:20:25.054Z,45.68
2018-07-05T18:23:12.177Z,46.12
2018-07-05T18:25:58.928Z,46.19
2018-07-05T18:28:45.848Z,47.46
2018-07-05T18:31:32.683Z,45.87
2018-07-05T18:34:19.494Z,46.76
2018-07-05T18:37:06.383Z,45.98
2018-07-05T18:39:53.208Z,46.57
2018-07-05T18:42:40.108Z,46.34
2018-07-05T18:45:27.182Z,46.46
2018-07-05T18:48:14.309Z,46.71
2018-07-05T18:51:01.102Z,47.03
2018-07-05T18:53:47.896Z,47.17
2018-07-05T18:56:34.625Z,47.30
2018-07-05T18:59:21.724Z,47.77
2018-07-05T19:02:08.490Z,47.13
2018-07-05T19:04:55.282Z,47.05
2018-07-05T19:07:42.317Z,47.15
2018-07-05T19:10:29.075Z,47.03
2018-07-05T19:13:15.659Z,47.57
2018-07-05T19:16:02.265Z,47.48
2018-07-05T19:18:49.196Z,47.82
2018-07-05T19:21:36.358Z,48.42
2018-07-05T19:24:23.006Z,48.56
2018-07-05T19:27:10.026Z,48.25
2018-07-05T19:29:56.853Z,46.51
2018-07-05T19:32:43.689Z,45.97
2018-07-05T19:35:30.490Z,46.69
2018-07-05T19:38:17.312Z,47.59
2018-07-05T19:41:04.135Z,47.19
2018-07-05T19:43:51.129Z,47.59
2018-07-05T19:46:37.807Z,48.89
2018-07-05T19:49:24.632Z,48.83
2018-07-05T19:52:11.636Z,50.05
2018-07-05T19:54:58.747Z,49.92
2018-07-05T19:57:45.591Z,49.51
2018-07-05T20:00:32.299Z,49.93
2018-07-05T20:03:19.650Z,50.93
2018-07-05T20:06:06.187Z,51.25
2018-07-05T20:08:52.881Z,50.88
2018-07-05T20:11:43.816Z,51.85
2018-07-05T20:14:30.561Z,52.17
2018-07-05T20:17:17.424Z,52.76
2018-07-05T20:20:04.261Z,52.24
2018-07-05T20:22:51.088Z,53.21
2018-07-05T20:25:37.901Z,53.03
2018-07-05T20:28:25.170Z,52.85
2018-07-05T20:31:12.049Z,53.24
2018-07-05T20:33:58.881Z,54.11
2018-07-05T20:36:45.791Z,53.95
2018-07-05T20:39:32.464Z,54.44
2018-07-05T20:42:19.514Z,54.53
2018-07-05T20:45:06.158Z,54.40
2018-07-05T20:47:53.165Z,54.33
2018-07-05T20:50:39.976Z,54.00
2018-07-05T20:53:26.885Z,53.44
2018-07-05T20:56:13.722Z,53.36
2018-07-05T20:59:00.975Z,52.42
2018-07-05T21:01:47.946Z,52.47
2018-07-05T21:04:34.832Z,52.71
2018-07-05T21:07:21.379Z,51.83
2018-07-05T21:10:08.216Z,52.29
2018-07-05T21:12:54.987Z,51.69
2018-07-05T21:15:41.900Z,51.98
2018-07-05T21:18:28.850Z,51.30
2018-07-05T21:21:15.470Z,51.97
2018-07-05T21:24:02.263Z,51.62
2018-07-05T21:26:49.176Z,51.93
2018-07-05T21:29:35.934Z,51.22
2018-07-05T21:32:22.693Z,51.56
2018-07-05T21:35:09.718Z,51.85
2018-07-05T21:37:56.579Z,51.53
2018-07-05T21:40:43.659Z,50.95
2018-07-05T21:43:30.713Z,50.50
2018-07-05T21:46:17.607Z,49.98
2018-07-05T21:49:04.278Z,49.42
2018-07-05T21:51:51.067Z,50.30
2018-07-05T21:54:37.998Z,50.82
2018-07-05T21:57:24.683Z,51.26
2018-07-05T22:00:11.540Z,51.29
2018-07-05T22:02:58.334Z,52.34
2018-07-05T22:05:45.126Z,52.75
2018-07-05T22:08:32.171Z,52.77
2018-07-05T22:11:19.227Z,53.92
2018-07-05T22:14:06.089Z,53.99
2018-07-05T22:16:58.017Z,54.54
2018-07-05T22:19:49.837Z,55.78
2018-07-05T23:44:58.152Z,74.89
2018-07-05T23:47:45.269Z,75.46
2018-07-05T23:50:32.092Z,74.24
2018-07-05T23:53:18.990Z,74.54
2018-07-05T23:56:05.690Z,74.66
2018-07-05T23:58:52.479Z,74.35
